Nearby METAR Reports

 

KVCT - Victoria, Texas, USA
Distance from station: E 12mi, 20km
Updated: Thu, 26-Jan-2023 10:51pm CST
Clear
Clear
 Wind from calm
Wind: Calm
Temperature: 43°F , 6°C
Dew Point: 39°F , 4°C
Humidity: 87%
Barometer: 30.40 inHg , 1029.5 hPa
Clouds: Clear
Visibility: 10 miles , 16 km
2023/01/27 04:51 KVCT 270451Z AUTO 00000KT 10SM CLR 06/04 A3040 RMK AO2 SLP293 T00560044
KPKV - Port Lavaca, Texas, USA
Distance from station: ESE 31mi, 50km
Updated: Thu, 26-Jan-2023 11:15pm CST
Clear
Clear
 Wind from calm
Wind: Calm
Temperature: 46°F , 8°C
Dew Point: 41°F , 5°C
Humidity: 82%
Barometer: 30.40 inHg , 1029.5 hPa
Clouds: Clear
Visibility: 10 miles , 16 km
2023/01/27 05:15 KPKV 270515Z AUTO 00000KT 10SM CLR 08/05 A3040 RMK AO2 T00770045
 
KT20 - Gonzales Muni, Texas, USA
Distance from station: NNW 50mi, 81km
Updated: Thu, 26-Jan-2023 11:15pm CST
Clear
Clear
 Wind from SE
Wind: SE 3 mph , 6 km/h
Temperature: 41°F , 5°C
Dew Point: 34°F , 1°C
Humidity: 76%
Barometer: 30.38 inHg , 1028.8 hPa
Clouds: Clear
Visibility: 10 miles , 16 km
2023/01/27 05:15 KT20 270515Z AUTO 14003KT 10SM CLR 05/01 A3038 RMK AO2 T00540009
KBEA - Beeville Muni, Texas, USA
Distance from station: SW 51mi, 83km
Updated: Thu, 26-Jan-2023 11:35pm CST
Clear
Clear
 Wind from calm
Wind: Calm
Temperature: 39°F , 4°C
Dew Point: 34°F , 1°C
Humidity: 81%
Barometer: 30.38 inHg , 1028.8 hPa
Clouds: Clear
Visibility: 10 miles , 16 km
2023/01/27 05:35 KBEA 270535Z AUTO 00000KT 10SM CLR 04/01 A3038 RMK AO2 T00440008
 
KRKP - Rockport, Texas, USA
Distance from station: S 53mi, 86km
Updated: Thu, 26-Jan-2023 10:53pm CST
Clear
Clear
 Wind from E
Wind: E 6 mph , 9 km/h
Temperature: 46°F , 8°C
Wind Chill: 43°F , 6°C
Dew Point: 39°F , 4°C
Humidity: 76%
Barometer: 30.39 inHg , 1029.1 hPa
Clouds: Clear
Visibility: 10 miles , 16 km
2023/01/27 04:53 KRKP 270453Z AUTO 09005KT 10SM CLR 08/04 A3039 RMK AO2 SLP294 T00830039
KPSX - Palacios, Texas, USA
Distance from station: E 55mi, 88km
Updated: Thu, 26-Jan-2023 10:53pm CST
Clear
Clear
 Wind from calm
Wind: Calm
Temperature: 45°F , 7°C
Dew Point: 37°F , 3°C
Humidity: 76%
Barometer: 30.40 inHg , 1029.5 hPa
Clouds: Clear
Visibility: 10 miles , 16 km
2023/01/27 04:53 KPSX 270453Z AUTO 00000KT 10SM CLR 07/03 A3040 RMK AO2 SLP292 T00670028
 
KTFP - Ingleside/Tp Mcc, Texas, USA
Distance from station: S 65mi, 104km
Updated: Thu, 26-Jan-2023 10:35pm CST
Clear
Clear
 Wind from ENE
Wind: ENE 5 mph , 7 km/h
Temperature: 50°F , 10°C
Wind Chill: 48°F , 9°C
Dew Point: 41°F , 5°C
Humidity: 71%
Barometer: 30.38 inHg , 1028.8 hPa
Clouds: Clear
Visibility: 10 miles , 16 km
2023/01/27 04:35 KTFP 270435Z AUTO 06004KT 10SM CLR 10/05 A3038 RMK AO2 T01010054
K66R - Columbus, Texas, USA
Distance from station: NE 66mi, 106km
Updated: Thu, 26-Jan-2023 11:15pm CST
Clear
Clear
 Wind from calm
Wind: Calm
Temperature: 37°F , 3°C
Dew Point: 36°F , 2°C
Humidity: 93%
Barometer: 30.40 inHg , 1029.5 hPa
Clouds: Clear
Visibility: 10 miles , 16 km
2023/01/27 05:15 K66R 270515Z AUTO 00000KT 10SM CLR 03/02 A3040 RMK AO2 T00310015
 
KARM - Wharton, Texas, USA
Distance from station: ENE 66mi, 106km
Updated: Mon, 23-Jan-2023 5:55am CST
NOT Current
Clear
Clear
 Wind from calm
Wind: Calm
Temperature: 36°F , 2°C
Dew Point: 34°F , 1°C
Humidity: 93%
Barometer: 30.22 inHg , 1023.4 hPa
Clouds: Clear
Visibility: 10 miles , 16 km
2023/01/23 11:55 KARM 231155Z AUTO 00000KT 10SM CLR 02/01 A3022 RMK AO2 T00190009 10072 20017 TSNO
KRAS - Port Aransas, Texas, USA
Distance from station: S 71mi, 115km
Updated: Thu, 26-Jan-2023 11:15pm CST
Overcast
Overcast
 Wind from NE
Wind: NE 6 mph , 9 km/h
Temperature: 55°F , 13°C
Dew Point: 37°F , 3°C
Humidity: 51%
Barometer: 30.40 inHg , 1029.5 hPa
Clouds: Overcast
Visibility: 10 miles , 16 km
Cloud details: Overcast 9000 ft
2023/01/27 05:15 KRAS 270515Z AUTO 05005KT 10SM OVC090 13/03 A3040 RMK AO2 T01270033
 
KELA - Eagle Lake, Texas, USA
Distance from station: NE 72mi, 115km
Updated: Thu, 26-Jan-2023 11:15pm CST
Clear
Clear
 
Temperature: 41°F , 5°C
Dew Point: 37°F , 3°C
Humidity: 87%
Barometer: 30.40 inHg , 1029.5 hPa
Clouds: Clear
Visibility: 10 miles , 16 km
2023/01/27 05:15 KELA 270515Z AUTO 10SM CLR 05/03 A3040 RMK AO2 T00460031
K3T5 - La Grange, Texas, USA
Distance from station: N 73mi, 118km
Updated: Thu, 26-Jan-2023 11:15pm CST
Clear
Clear
 Wind from calm
Wind: Calm
Temperature: 36°F , 2°C
Dew Point: 36°F , 2°C
Humidity: 100%
Barometer: 30.39 inHg , 1029.1 hPa
Clouds: Clear
Visibility: 10 miles , 16 km
2023/01/27 05:15 K3T5 270515Z AUTO 00000KT 10SM CLR 02/02 A3039 RMK AO2 T00230022 $
 
KBYY - Bay City, Texas, USA
Distance from station: E 77mi, 124km
Updated: Thu, 26-Jan-2023 11:15pm CST
Clear
Clear
 Wind from calm
Wind: Calm
Temperature: 37°F , 3°C
Dew Point: 36°F , 2°C
Humidity: 93%
Barometer: 30.40 inHg , 1029.5 hPa
Clouds: Clear
Visibility: 10 miles , 16 km
2023/01/27 05:15 KBYY 270515Z AUTO 00000KT 10SM CLR 03/02 A3040 RMK AO2 T00340021
KCRP - Corpus Christi, Texas, USA
Distance from station: SSW 78mi, 126km
Updated: Thu, 26-Jan-2023 10:51pm CST
Mostly cloudy
Mostly cloudy
 Wind from E
Wind: E 6 mph , 9 km/h
Temperature: 48°F , 9°C
Wind Chill: 45°F , 7°C
Dew Point: 39°F , 4°C
Humidity: 71%
Barometer: 30.38 inHg , 1028.8 hPa
Clouds: Mostly cloudy
Visibility: 10 miles , 16 km
Cloud details: Partly cloudy 9000 ft
Mostly cloudy 25000 ft
2023/01/27 04:51 KCRP 270451Z 08005KT 10SM SCT090 BKN250 09/04 A3038 RMK AO2 SLP288 T00940039
 
KNGP - C. Christi Nas, Texas, USA
Distance from station: S 81mi, 130km
Updated: Thu, 26-Jan-2023 10:56pm CST
Mostly cloudy
Mostly cloudy
 Wind from ENE
Wind: ENE 9 mph , 15 km/h
Temperature: 57°F , 14°C
Dew Point: 39°F , 4°C
Humidity: 51%
Barometer: 30.39 inHg , 1029.1 hPa
Clouds: Mostly cloudy
Visibility: 10 miles , 16 km
Cloud details: Mostly cloudy 9000 ft
2023/01/27 04:56 KNGP 270456Z 06008KT 10SM BKN090 14/04 A3039 RMK AO2 SLP289 T01440039 $
KRBO - Robstown/Nueces, Texas, USA
Distance from station: SSW 81mi, 130km
Updated: Thu, 26-Jan-2023 11:15pm CST
Clear
Clear
 Wind from calm
Wind: Calm
Temperature: 46°F , 8°C
Dew Point: 39°F , 4°C
Humidity: 76%
Barometer: 30.39 inHg , 1029.1 hPa
Clouds: Clear
Visibility: 10 miles , 16 km
2023/01/27 05:15 KRBO 270515Z AUTO 00000KT 10SM CLR 08/04 A3039 RMK AO2 T00780039
 
KBAZ - New Braunfels, Texas, USA
Distance from station: NW 81mi, 131km
Updated: Thu, 26-Jan-2023 10:51pm CST
Clear
Clear
 Wind from NNW
Wind: NNW 5 mph , 7 km/h
Temperature: 37°F , 3°C
Wind Chill: 33°F , 1°C
Dew Point: 30°F , -1°C
Humidity: 75%
Barometer: 30.38 inHg , 1028.8 hPa
Clouds: Clear
Visibility: 10 miles , 16 km
2023/01/27 04:51 KBAZ 270451Z 33004KT 10SM CLR 03/M01 A3038 RMK AO2 SLP287 T00281011 401441006
KRND - Randolph Afb, Texas, USA
Distance from station: NW 82mi, 132km
Updated: Thu, 26-Jan-2023 10:55pm CST
Clear
Clear
 Wind from calm
Wind: Calm
Temperature: 36°F , 2°C
Dew Point: 30°F , -1°C
Humidity: 81%
Barometer: 30.35 inHg , 1027.8 hPa
Clouds: Clear
Visibility: 10 miles , 16 km
2023/01/27 04:55 KRND 270455Z AUTO 00000KT 10SM CLR 02/M01 A3035 RMK AO2 SLP281 T00221009
 
KHYI - San Marcos, Texas, USA
Distance from station: NNW 84mi, 135km
Updated: Thu, 26-Jan-2023 10:56pm CST
Clear
Clear
 Wind from NW
Wind: NW 6 mph , 9 km/h
Clouds: Clear
Visibility: 10 miles , 16 km
2023/01/27 04:56 KHYI 270456Z AUTO 31005KT 10SM CLR RMK AO2 SLPNO FZRANO $
KPEZ - Pleasanton Muni, Texas, USA
Distance from station: W 84mi, 135km
Updated: Thu, 26-Jan-2023 11:15pm CST
Clear
Clear
 Wind from calm
Wind: Calm
Temperature: 36°F , 2°C
Dew Point: 28°F , -2°C
Humidity: 75%
Barometer: 30.39 inHg , 1029.1 hPa
Clouds: Clear
Visibility: 10 miles , 16 km
2023/01/27 05:15 KPEZ 270515Z AUTO 00000KT 10SM CLR 02/M02 A3039 RMK AO2 T00201017